^^

Metar de toute la France(point de départ, Chateauroux, classé dans l'ordre alphabétique actualisée toutes les 30 minutes)






LFBA - Agen/, France
Distance de la station: SSO 307km
Mise à jour: 26/11/2014 20:30
faible pluie, Broulliard, nuageux
faible pluie, Broulliard, nuageux
 Wind from O
Vent: O 6 km/h
Température: 12°C
Point de Rosée: 12°C
Humidité: 100%
Baromètre: 1010 hPa
Récapitulatifs: faible pluie, Broulliard
Nuages: nuageux
Visibilité: 5 km
Nuages details: Quelques Nuages 427 m
nuageux 1219 m
nuageux 1433 m
2014/11/26 19:30 LFBA 261930Z AUTO 28003KT 5000 -RA BR FEW014 BKN040 BKN047 12/12 Q1010
LFLP - Annecy/, France
Distance de la station: ESE 352km
Mise à jour: 26/11/2014 20:30
Couvert
Couvert
 Wind from variable
Vent: variable 4 km/h
Température: 9°C
Point de Rosée: 8°C
Humidité: 94%
Baromètre: 1012 hPa
Nuages: Couvert
Visibilité: 6 km
Nuages details: Quelques Nuages 2377 m
Couvert 2682 m
2014/11/26 19:30 LFLP 261930Z AUTO VRB02KT 6000 FEW078 OVC088 09/08 Q1012
 
LFOA - Avord/ , France
Distance de la station: ENE 76km
Mise à jour: 26/11/2014 20:30
partiellement nuageux
partiellement nuageux
 Wind from SE
Vent: SE 6 km/h
Température: 9°C
Point de Rosée: 8°C
Humidité: 94%
Baromètre: 1011 hPa
Nuages: partiellement nuageux
Visibilité: 10 km
2014/11/26 19:30 LFOA 261930Z AUTO 13003KT 9999 NSC 09/08 Q1011
LFSB - Bale/, France
Distance de la station: ENE 449km
Mise à jour: 26/11/2014 20:30
Couvert
Couvert
 Wind from NO
Vent: NO 7 km/h
Température: 9°C
Wind Chill: 8°C
Point de Rosée: 8°C
Humidité: 94%
Baromètre: 1013 hPa
Nuages: Couvert
Visibilité: 7 km
Nuages details: Couvert 335 m
2014/11/26 19:30 LFSB 261930Z 32004KT 310V020 7000 OVC011 09/08 Q1013 BECMG BKN010
 
LFOB - Beauvais/, France
Distance de la station: N 296km
Mise à jour: 26/11/2014 20:30
Couvert
Couvert
 Wind from variable
Vent: variable 4 km/h
Température: 11°C
Point de Rosée: 11°C
Humidité: 100%
Baromètre: 1010 hPa
Nuages: Couvert
Visibilité: 10 km
Nuages details: Quelques Nuages 244 m
nuageux 671 m
Couvert 1341 m
2014/11/26 19:30 LFOB 261930Z AUTO VRB02KT 9999 FEW008 BKN022 OVC044 11/11 Q1010
LFBE - Bergerac/, France
Distance de la station: SSO 240km
Mise à jour: 26/11/2014 20:30
faible pluie, partiellement nuageux
faible pluie, partiellement nuageux
 Wind from O
Vent: O 4 km/h
Température: 12°C
Point de Rosée: 12°C
Humidité: 100%
Baromètre: 1010 hPa
Récapitulatifs: faible pluie
Nuages: partiellement nuageux
Visibilité: 7 km
2014/11/26 19:30 LFBE 261930Z AUTO 28002KT 7000 -RA NSC 12/12 Q1010
 
LFMU - Beziers/, France
Distance de la station: SSE 411km
Mise à jour: 26/11/2014 20:30
fortes pluies, Brouillard ou brume, Orage
fortes pluies, Brouillard ou brume, Orage
 Wind from NNE
Vent: NNE 9 km/h
Température: 14°C
Point de Rosée: 14°C
Humidité: 100%
Baromètre: 1009 hPa
Récapitulatifs: fortes pluies, Brouillard ou brume
Nuages: Orage
Visibilité: 1 km
Nuages details: Couvert 152 m
2014/11/26 19:30 LFMU 261930Z AUTO 03005KT 360V120 0900 R09/P2000 +RA FG OVC005/// ///CB 14/14 Q1009
LFBZ - Biarritz/, France
Distance de la station: SO 449km
Mise à jour: 26/11/2014 20:30
Couvert
Couvert
 Wind from calm
Vent: Vent calme
Température: 12°C
Point de Rosée: 11°C
Humidité: 94%
Baromètre: 1010 hPa
Nuages: Couvert
Visibilité: 10 km
Nuages details: Couvert 1250 m
2014/11/26 19:30 LFBZ 261930Z AUTO 00000KT 9999 OVC041 12/11 Q1010
 
LFBD - Bordeaux/, France
Distance de la station: SO 289km
Mise à jour: 26/11/2014 20:30

 Wind from calm
Vent: Vent calme
Visibilité: 1 km
2014/11/26 19:30 LFBD 261930Z AUTO 00000KT 0650 0450 R23/1700U R05/1400D R29/1800U FG NSC 12/11 Q1010
LFAQ - Bray/, France
Distance de la station: N 358km
Mise à jour: 26/11/2014 20:30
Brouillard ou brume
Brouillard ou brume
 Wind from SE
Vent: SE 7 km/h
Température: 10°C
Wind Chill: 9°C
Point de Rosée: 10°C
Humidité: 100%
Baromètre: 1010 hPa
Récapitulatifs: Brouillard ou brume
Visibilité: 0 km
2014/11/26 19:30 LFAQ 261930Z AUTO 13004KT 0300 R27/1400N FG VV/// 10/10 Q1010
 
LFRB - Brest/, France
Distance de la station: ONO 492km
Mise à jour: 26/11/2014 20:30
Broulliard, partiellement nuageux
Broulliard, partiellement nuageux
 Wind from ONO
Vent: ONO 6 km/h
Température: 5°C
Point de Rosée: 4°C
Humidité: 93%
Baromètre: 1009 hPa
Récapitulatifs: Broulliard
Nuages: partiellement nuageux
Visibilité: 3 km
Nuages details: partiellement nuageux 488 m
2014/11/26 19:30 LFRB 261930Z 29003KT 3000 BR SCT016 05/04 Q1009 NOSIG
LFRK - Caen/, France
Distance de la station: NNO 306km
Mise à jour: 26/11/2014 20:30
Couvert
Couvert
 Wind from S
Vent: S 7 km/h
Température: 10°C
Wind Chill: 9°C
Point de Rosée: 10°C
Humidité: 100%
Baromètre: 1009 hPa
Nuages: Couvert
Visibilité: 7 km
Nuages details: Quelques Nuages 701 m
Couvert 1372 m
2014/11/26 19:30 LFRK 261930Z AUTO 19004KT 7000 FEW023 OVC045 10/10 Q1009
 
LFMK - Carcassonne/, France
Distance de la station: S 403km
Mise à jour: 26/11/2014 20:30
faible pluie, Orage
faible pluie, Orage
 Wind from variable
Vent: variable 2 km/h
Température: 14°C
Point de Rosée: 13°C
Humidité: 94%
Baromètre: 1009 hPa
Récapitulatifs: faible pluie
Nuages: Orage
Visibilité: 7 km
Nuages details: nuageux 183 m
nuageux 335 m
nuageux 518 m
2014/11/26 19:30 LFMK 261930Z AUTO VRB01KT 7000 -RA BKN006/// BKN011/// BKN017/// ///CB 14/13 Q1009
LFMV - Caumont/, France
Distance de la station: SE 410km
Mise à jour: 26/11/2014 20:30
Broulliard, Couvert
Broulliard, Couvert
 Wind from NNO
Vent: NNO 6 km/h
Température: 12°C
Point de Rosée: 12°C
Humidité: 100%
Baromètre: 1010 hPa
Récapitulatifs: Broulliard
Nuages: Couvert
Visibilité: 4 km
Nuages details: Quelques Nuages 1433 m
nuageux 1829 m
Couvert 3353 m
2014/11/26 19:30 LFMV 261930Z AUTO 34003KT 4300 BR FEW047 BKN060 OVC110 12/12 Q1010
 
LFBC - Cazaux/, France
Distance de la station: SO 336km
Mise à jour: 26/11/2014 20:30
Brouillard ou brume, partiellement nuageux
Brouillard ou brume, partiellement nuageux
 Wind from calm
Vent: Vent calme
Température: 11°C
Point de Rosée: 11°C
Humidité: 100%
Baromètre: 1010 hPa
Récapitulatifs: Brouillard ou brume
Nuages: partiellement nuageux
Visibilité: 1 km
2014/11/26 19:30 LFBC 261930Z AUTO 00000KT 0600 R24/P2000 FG NSC 11/11 Q1010
LFPC - Creil/, France
Distance de la station: NNE 278km
Mise à jour: 26/11/2014 20:30

 Wind from SO
Vent: SO 6 km/h
Température: 12°C
Point de Rosée: 11°C
Humidité: 94%
Baromètre: 1010 hPa
Visibilité: 7 km
2014/11/26 19:30 LFPC 261930Z AUTO 23003KT 7000 ////// 12/11 Q1010
 
LFLB - Chambery/, France
Distance de la station: ESE 348km
Mise à jour: 26/11/2014 20:30
partiellement nuageux
partiellement nuageux
 Wind from calm
Vent: Vent calme
Température: 10°C
Point de Rosée: 9°C
Humidité: 94%
Baromètre: 1011 hPa
Nuages: partiellement nuageux
Visibilité: 6 km
2014/11/26 19:30 LFLB 261930Z AUTO 00000KT 6000 NSC 10/09 Q1011
LFOK - Chalons/, France
Distance de la station: NE 287km
Mise à jour: 26/11/2014 20:30
Couvert
Couvert
 Wind from S
Vent: S 9 km/h
Température: 12°C
Point de Rosée: 11°C
Humidité: 94%
Baromètre: 1011 hPa
Nuages: Couvert
Visibilité: 6 km
Nuages details: Couvert 183 m
2014/11/26 19:30 LFOK 261930Z AUTO 19005KT 6000 OVC006 12/11 Q1011
 
LFOC - Chateaudun/, France
Distance de la station: N 137km
Mise à jour: 26/11/2014 20:30
Couvert
Couvert
 Wind from SSE
Vent: SSE 9 km/h
Température: 11°C
Point de Rosée: 10°C
Humidité: 94%
Baromètre: 1010 hPa
Nuages: Couvert
Visibilité: 10 km
Nuages details: Couvert 1097 m
2014/11/26 19:30 LFOC 261930Z AUTO 16005KT 9999 OVC036 11/10 Q1010
LFLX - Chateauroux/, France
Distance de la station: NE 4km
Mise à jour: 26/11/2014 20:30
partiellement nuageux
partiellement nuageux
 Wind from calm
Vent: Vent calme
Température: 9°C
Point de Rosée: 8°C
Humidité: 94%
Baromètre: 1010 hPa
Nuages: partiellement nuageux
Visibilité: 10 km
2014/11/26 19:30 LFLX 261930Z AUTO 00000KT 9999 NSC 09/08 Q1010
 
LFPG - Charles De Gaulle/, France
Distance de la station: NNE 252km
Mise à jour: 26/11/2014 20:30
nuageux
nuageux
 Wind from OSO
Vent: OSO 11 km/h
Température: 12°C
Point de Rosée: 11°C
Humidité: 94%
Baromètre: 1010 hPa
Nuages: nuageux
Visibilité: 10 km
Nuages details: partiellement nuageux 335 m
nuageux 1311 m
2014/11/26 19:30 LFPG 261930Z 24006KT 9999 SCT011 BKN043 12/11 Q1010 NOSIG
LFRC - Cherbourg/, France
Distance de la station: NO 390km
Mise à jour: 26/11/2014 20:30
faible pluie, Broulliard, Couvert
faible pluie, Broulliard, Couvert
 Wind from NO
Vent: NO 9 km/h
Température: 10°C
Wind Chill: 9°C
Point de Rosée: 10°C
Humidité: 100%
Baromètre: 1008 hPa
Récapitulatifs: faible pluie, Broulliard
Nuages: Couvert
Visibilité: 3 km
Nuages details: nuageux 61 m
Couvert 213 m
2014/11/26 19:30 LFRC 261930Z AUTO 32005KT 290V360 3400 -RA BR BKN002 OVC007 10/10 Q1008
 
LFLC - Clermont/, France
Distance de la station: SE 163km
Mise à jour: 26/11/2014 20:30
faible pluie, nuageux
faible pluie, nuageux
 Wind from variable
Vent: variable 2 km/h
Température: 12°C
Point de Rosée: 10°C
Humidité: 88%
Baromètre: 1010 hPa
Récapitulatifs: faible pluie
Nuages: nuageux
Visibilité: 10 km
Nuages details: partiellement nuageux 305 m
nuageux 1402 m
2014/11/26 19:30 LFLC 261930Z VRB01KT 9999 -RA SCT010 BKN046 12/10 Q1010 NOSIG
LFBG - Cognac/, France
Distance de la station: SO 200km
Mise à jour: 26/11/2014 20:30
partiellement nuageux
partiellement nuageux
 Wind from calm
Vent: Vent calme
Température: 12°C
Point de Rosée: 11°C
Humidité: 94%
Baromètre: 1010 hPa
Nuages: partiellement nuageux
Visibilité: 10 km
2014/11/26 19:30 LFBG 261930Z AUTO 00000KT 9999 NSC 12/11 Q1010
 
LFBY - Dax/, France
Distance de la station: SSO 411km
Mise à jour: 26/11/2014 20:00
Quelques Nuages
Quelques Nuages
 Wind from calm
Vent: Vent calme
Température: 13°C
Point de Rosée: 12°C
Humidité: 94%
Baromètre: 1010 hPa
Nuages: Quelques Nuages
Visibilité: 5 km
Nuages details: Quelques Nuages 549 m
2014/11/26 19:00 LFBY 261900Z AUTO 00000KT 5000 // FEW018/// 13/12 Q1010
LFSD - Dijon/, France
Distance de la station: ENE 261km
Mise à jour: 26/11/2014 20:30
Broulliard, Couvert
Broulliard, Couvert
 Wind from NE
Vent: NE 6 km/h
Température: 11°C
Point de Rosée: 10°C
Humidité: 94%
Baromètre: 1012 hPa
Récapitulatifs: Broulliard
Nuages: Couvert
Visibilité: 3 km
Nuages details: Couvert 61 m
2014/11/26 19:30 LFSD 261930Z AUTO 04003KT 2900 BR OVC002 11/10 Q1012
 
LFRD - Dinard/, France
Distance de la station: NO 342km
Mise à jour: 26/11/2014 20:30
Broulliard, Couvert
Broulliard, Couvert
 Wind from S
Vent: S 2 km/h
Température: 11°C
Point de Rosée: 10°C
Humidité: 94%
Baromètre: 1008 hPa
Récapitulatifs: Broulliard
Nuages: Couvert
Visibilité: 5 km
Nuages details: Quelques Nuages 457 m
Couvert 762 m
2014/11/26 19:30 LFRD 261930Z AUTO 19001KT 5000 BR FEW015 OVC025 11/10 Q1008
LFGJ - Dole/, France
Distance de la station: E 286km
Mise à jour: 26/11/2014 20:30
Broulliard, Couvert
Broulliard, Couvert
 Wind from N
Vent: N 6 km/h
Température: 11°C
Point de Rosée: 11°C
Humidité: 100%
Baromètre: 1011 hPa
Récapitulatifs: Broulliard
Nuages: Couvert
Visibilité: 2 km
Nuages details: Quelques Nuages 457 m
Couvert 762 m
2014/11/26 19:30 LFGJ 261930Z AUTO 01003KT 2300 BR FEW015 OVC025 11/11 Q1011
 
LFOE - Evreux/, France
Distance de la station: N 247km
Mise à jour: 26/11/2014 20:30
Brouillard ou brume, partiellement nuageux
Brouillard ou brume, partiellement nuageux
 Wind from SSO
Vent: SSO 7 km/h
Température: 8°C
Wind Chill: 7°C
Point de Rosée: 7°C
Humidité: 93%
Baromètre: 1010 hPa
Récapitulatifs: Brouillard ou brume
Nuages: partiellement nuageux
Visibilité: 0 km
2014/11/26 19:30 LFOE 261930Z AUTO 20004KT 0350 R22/P2000 FG NSC 08/07 Q1010
LFMT - Frejorgues/, France
Distance de la station: SSE 403km
Mise à jour: 26/11/2014 20:30
nuageux
nuageux
 Wind from ENE
Vent: ENE 20 km/h
Température: 14°C
Point de Rosée: 13°C
Humidité: 94%
Baromètre: 1009 hPa
Nuages: nuageux
Visibilité: 10 km
Nuages details: partiellement nuageux 244 m
nuageux 396 m
2014/11/26 19:30 LFMT 261930Z 06011KT 9999 SCT008 BKN013 14/13 Q1009 NOSIG
 
LFMI - Istres/, France
Distance de la station: SE 446km
Mise à jour: 26/11/2014 20:30
nuageux
nuageux
 Wind from E
Vent: E 17 km/h
Température: 15°C
Point de Rosée: 14°C
Humidité: 94%
Baromètre: 1009 hPa
Nuages: nuageux
Visibilité: 10 km
Nuages details: partiellement nuageux 884 m
nuageux 1036 m
nuageux 2134 m
2014/11/26 19:30 LFMI 261930Z AUTO 10009KT 9999 // SCT029 BKN034 BKN070 15/14 Q1009
LFLS - Grenoble/, France
Distance de la station: ESE 323km
Mise à jour: 26/11/2014 20:30
Couvert
Couvert
 Wind from SE
Vent: SE 6 km/h
Température: 11°C
Point de Rosée: 10°C
Humidité: 94%
Baromètre: 1011 hPa
Nuages: Couvert
Visibilité: 9 km
Nuages details: Quelques Nuages 518 m
nuageux 884 m
Couvert 2256 m
2014/11/26 19:30 LFLS 261930Z AUTO 13003KT 9000 FEW017 BKN029 OVC074 11/10 Q1011
 
LFBH - La Rochelle/, France
Distance de la station: OSO 229km
Mise à jour: 26/11/2014 20:30
Quelques Nuages
Quelques Nuages
 Wind from O
Vent: O 7 km/h
Température: 11°C
Point de Rosée: 10°C
Humidité: 94%
Baromètre: 1010 hPa
Nuages: Quelques Nuages
Visibilité: 10 km
Nuages details: Quelques Nuages 853 m
2014/11/26 19:30 LFBH 261930Z AUTO 28004KT 9999 FEW028 11/10 Q1010
LFRI - La Roche Sur Yon/, France
Distance de la station: O 233km
Mise à jour: 26/11/2014 20:30
partiellement nuageux
partiellement nuageux
 Wind from S
Vent: S 6 km/h
Température: 11°C
Point de Rosée: 11°C
Humidité: 100%
Baromètre: 1010 hPa
Nuages: partiellement nuageux
Visibilité: 6 km
2014/11/26 19:30 LFRI 261930Z AUTO 18003KT 6000 NSC 11/11 Q1010
 
LFOH - Le Havre/, France
Distance de la station: NNO 323km
Mise à jour: 26/11/2014 20:30
Couvert
Couvert
 Wind from S
Vent: S 9 km/h
Température: 11°C
Point de Rosée: 10°C
Humidité: 94%
Baromètre: 1009 hPa
Nuages: Couvert
Visibilité: 10 km
Nuages details: Couvert 884 m
2014/11/26 19:30 LFOH 261930Z AUTO 18005KT 150V210 9999 OVC029 11/10 Q1009
LFRM - Le Mans/, France
Distance de la station: NO 166km
Mise à jour: 26/11/2014 20:30
nuageux
nuageux
 Wind from calm
Vent: Vent calme
Température: 10°C
Point de Rosée: 9°C
Humidité: 94%
Baromètre: 1009 hPa
Nuages: nuageux
Visibilité: 9 km
Nuages details: Quelques Nuages 1158 m
nuageux 2560 m
2014/11/26 19:30 LFRM 261930Z AUTO 00000KT 9000 FEW038 BKN084 10/09 Q1009
 
LFRJ - Landivisiau/, France
Distance de la station: ONO 476km
Mise à jour: 26/11/2014 20:30
partiellement nuageux
partiellement nuageux
 Wind from OSO
Vent: OSO 9 km/h
Température: 8°C
Wind Chill: 6°C
Point de Rosée: 6°C
Humidité: 87%
Baromètre: 1010 hPa
Nuages: partiellement nuageux
Visibilité: 6 km
2014/11/26 19:30 LFRJ 261930Z AUTO 25005KT 6000 NSC 08/06 Q1010
LFRO - Lannion/, France
Distance de la station: ONO 441km
Mise à jour: 26/11/2014 20:30
Couvert
Couvert
 Wind from NNO
Vent: NNO 2 km/h
Température: 10°C
Point de Rosée: 9°C
Humidité: 94%
Baromètre: 1009 hPa
Nuages: Couvert
Visibilité: 8 km
Nuages details: Couvert 1006 m
2014/11/26 19:30 LFRO 261930Z AUTO 33001KT 8000 OVC033 10/09 Q1009
 
LFRL - Lanveoc/, France
Distance de la station: ONO 485km
Mise à jour: 26/11/2014 20:30
partiellement nuageux
partiellement nuageux
 Wind from ONO
Vent: ONO 7 km/h
Température: 8°C
Wind Chill: 7°C
Point de Rosée: 6°C
Humidité: 87%
Baromètre: 1010 hPa
Nuages: partiellement nuageux
Visibilité: 10 km
Nuages details: partiellement nuageux 579 m
2014/11/26 19:30 LFRL 261930Z AUTO 29004KT 9999 SCT019 08/06 Q1010
LFBL - Limoges/, France
Distance de la station: SSO 113km
Mise à jour: 26/11/2014 20:30
partiellement nuageux
partiellement nuageux
 Wind from N
Vent: N 7 km/h
Température: 11°C
Point de Rosée: 8°C
Humidité: 82%
Baromètre: 1010 hPa
Nuages: partiellement nuageux
Visibilité: 10 km
2014/11/26 19:30 LFBL 261930Z AUTO 01004KT 9999 NSC 11/08 Q1010
 
LFQQ - Lille/, France
Distance de la station: NNE 430km
Mise à jour: 26/11/2014 20:30
Broulliard, Couvert
Broulliard, Couvert
 Wind from S
Vent: S 9 km/h
Température: 10°C
Wind Chill: 9°C
Point de Rosée: 10°C
Humidité: 100%
Baromètre: 1010 hPa
Récapitulatifs: Broulliard
Nuages: Couvert
Visibilité: 2 km
Nuages details: Couvert 61 m
2014/11/26 19:30 LFQQ 261930Z 18005KT 1500 BR OVC002 10/10 Q1010 TEMPO 0200 FG VV///
LFRH - Lorient/, France
Distance de la station: ONO 401km
Mise à jour: 26/11/2014 20:30
Couvert
Couvert
 Wind from ONO
Vent: ONO 9 km/h
Température: 10°C
Wind Chill: 9°C
Point de Rosée: 9°C
Humidité: 94%
Baromètre: 1009 hPa
Nuages: Couvert
Visibilité: 6 km
Nuages details: Quelques Nuages 152 m
Couvert 914 m
2014/11/26 19:30 LFRH 261930Z AUTO 30005KT 6000 FEW005 OVC030 10/09 Q1009
 
LFLY - Lyon/, France
Distance de la station: ESE 279km
Mise à jour: 26/11/2014 20:30
Broulliard, partiellement nuageux
Broulliard, partiellement nuageux
 Wind from variable
Vent: variable 2 km/h
Température: 12°C
Point de Rosée: 11°C
Humidité: 94%
Baromètre: 1011 hPa
Récapitulatifs: Broulliard
Nuages: partiellement nuageux
Visibilité: 4 km
2014/11/26 19:30 LFLY 261930Z AUTO VRB01KT 3700 BR NSC 12/11 Q1011
LFLL - Lyon/Satolas, France
Distance de la station: ESE 287km
Mise à jour: 26/11/2014 20:30
nuageux
nuageux
 Wind from E
Vent: E 7 km/h
Température: 12°C
Point de Rosée: 11°C
Humidité: 94%
Baromètre: 1011 hPa
Nuages: nuageux
Visibilité: 10 km
Nuages details: partiellement nuageux 1402 m
nuageux 2438 m
2014/11/26 19:30 LFLL 261930Z 10004KT 9999 SCT046 BKN080 12/11 Q1011 NOSIG
 
LFSX - Luxeuil/, France
Distance de la station: ENE 366km
Mise à jour: 26/11/2014 20:30
Couvert
Couvert
 Wind from variable
Vent: variable 4 km/h
Température: 10°C
Point de Rosée: 8°C
Humidité: 88%
Baromètre: 1012 hPa
Nuages: Couvert
Visibilité: 10 km
Nuages details: Couvert 549 m
2014/11/26 19:30 LFSX 261930Z AUTO VRB02KT 9999 OVC018 10/08 Q1012
LFJR - Marce/, France
Distance de la station: NO 134km
Mise à jour: 26/11/2014 20:30
partiellement nuageux
partiellement nuageux
 Wind from S
Vent: S 6 km/h
Température: 10°C
Point de Rosée: 10°C
Humidité: 100%
Baromètre: 1009 hPa
Nuages: partiellement nuageux
Visibilité: 10 km
2014/11/26 19:30 LFJR 261930Z AUTO 17003KT 9999 NSC 10/10 Q1009
 
LFML - Marseille/, France
Distance de la station: SE 466km
Mise à jour: 26/11/2014 20:30
nuageux
nuageux
 Wind from ESE
Vent: ESE 19 km/h
Température: 15°C
Point de Rosée: 12°C
Humidité: 82%
Baromètre: 1010 hPa
Nuages: nuageux
Visibilité: 10 km
Nuages details: Quelques Nuages 457 m
partiellement nuageux 1097 m
nuageux 2438 m
2014/11/26 19:30 LFML 261930Z 11010KT 9999 FEW015 SCT036 BKN080 15/12 Q1010 RERA TEMPO 3000 RA BKN015
LFPM - Melun/, France
Distance de la station: NNE 213km
Mise à jour: 26/11/2014 20:30
Couvert
Couvert
 Wind from OSO
Vent: OSO 6 km/h
Température: 12°C
Point de Rosée: 11°C
Humidité: 94%
Baromètre: 1010 hPa
Nuages: Couvert
Visibilité: 10 km
Nuages details: Couvert 1158 m
2014/11/26 19:30 LFPM 261930Z AUTO 25003KT 9999 OVC038 12/11 Q1010
 
LFJL - Metz-Nancy-Lorra/, France
Distance de la station: NE 416km
Mise à jour: 26/11/2014 20:30
Couvert
Couvert
 Wind from E
Vent: E 15 km/h
Température: 7°C
Wind Chill: 4°C
Point de Rosée: 6°C
Humidité: 93%
Baromètre: 1012 hPa
Nuages: Couvert
Visibilité: 6 km
Nuages details: Couvert 213 m
2014/11/26 19:30 LFJL 261930Z AUTO 10008KT 6000 OVC007 07/06 Q1012
LFBM - Mont-De-Marsan/, France
Distance de la station: SSO 365km
Mise à jour: 26/11/2014 20:30
Broulliard, partiellement nuageux
Broulliard, partiellement nuageux
 Wind from ONO
Vent: ONO 6 km/h
Température: 11°C
Point de Rosée: 11°C
Humidité: 100%
Baromètre: 1011 hPa
Récapitulatifs: Broulliard
Nuages: partiellement nuageux
Visibilité: 4 km
2014/11/26 19:30 LFBM 261930Z AUTO 30003KT 3500 BR NSC 11/11 Q1011
 
LFSO - Nancy/, France
Distance de la station: ENE 375km
Mise à jour: 26/11/2014 20:30
Broulliard, Couvert
Broulliard, Couvert
 Wind from E
Vent: E 9 km/h
Température: 8°C
Wind Chill: 6°C
Point de Rosée: 7°C
Humidité: 93%
Baromètre: 1012 hPa
Récapitulatifs: Broulliard
Nuages: Couvert
Visibilité: 4 km
Nuages details: Couvert 244 m
2014/11/26 19:30 LFSO 261930Z AUTO 10005KT 4100 BR OVC008 08/07 Q1012
LFRS - Nantes/, France
Distance de la station: O 252km
Mise à jour: 26/11/2014 20:30
nuageux
nuageux
 Wind from SSO
Vent: SSO 7 km/h
Température: 11°C
Point de Rosée: 10°C
Humidité: 94%
Baromètre: 1009 hPa
Nuages: nuageux
Visibilité: 10 km
Nuages details: Quelques Nuages 457 m
nuageux 2103 m
2014/11/26 19:30 LFRS 261930Z 20004KT 9999 FEW015 BKN069 11/10 Q1009 NOSIG
 
LFTW - Nimes/, France
Distance de la station: SE 402km
Mise à jour: 26/11/2014 20:30
Orage
Orage
 Wind from ENE
Vent: ENE 9 km/h
Température: 13°C
Point de Rosée: 12°C
Humidité: 94%
Baromètre: 1009 hPa
Nuages: Orage
Visibilité: 10 km
Nuages details: partiellement nuageux 853 m
nuageux 1829 m
nuageux 2256 m
2014/11/26 19:30 LFTW 261930Z AUTO 06005KT 9999 SCT028/// BKN060/// BKN074/// ///TCU 13/12 Q1009
LFMO - Orange/, France
Distance de la station: SE 387km
Mise à jour: 26/11/2014 20:30
nuageux
nuageux
 Wind from N
Vent: N 7 km/h
Température: 13°C
Point de Rosée: 12°C
Humidité: 94%
Baromètre: 1010 hPa
Nuages: nuageux
Visibilité: 10 km
Nuages details: partiellement nuageux 1372 m
partiellement nuageux 1951 m
nuageux 2438 m
2014/11/26 19:30 LFMO 261930Z AUTO 36004KT 9999 SCT045 SCT064 BKN080 13/12 Q1010
 
LFOJ - Orleans/, France
Distance de la station: N 128km
Mise à jour: 26/11/2014 20:30
Couvert
Couvert
 Wind from SSE
Vent: SSE 7 km/h
Température: 11°C
Point de Rosée: 10°C
Humidité: 94%
Baromètre: 1010 hPa
Nuages: Couvert
Visibilité: 10 km
Nuages details: Couvert 1067 m
2014/11/26 19:30 LFOJ 261930Z AUTO 15004KT 9999 OVC035 11/10 Q1010
LFPB - Paris/, France
Distance de la station: NNE 246km
Mise à jour: 26/11/2014 20:30
Couvert
Couvert
 Wind from OSO
Vent: OSO 6 km/h
Température: 12°C
Point de Rosée: 11°C
Humidité: 94%
Baromètre: 1010 hPa
Nuages: Couvert
Visibilité: 10 km
Nuages details: Quelques Nuages 732 m
Couvert 1372 m
2014/11/26 19:30 LFPB 261930Z AUTO 25003KT 9999 FEW024 OVC045 12/11 Q1010
 
LFPO - Paris/Orly/, France
Distance de la station: NNE 218km
Mise à jour: 26/11/2014 20:30
nuageux
nuageux
 Wind from SSO
Vent: SSO 4 km/h
Température: 12°C
Point de Rosée: 11°C
Humidité: 94%
Baromètre: 1010 hPa
Nuages: nuageux
Visibilité: 10 km
Nuages details: nuageux 1219 m
2014/11/26 19:30 LFPO 261930Z 20002KT 9999 BKN040 12/11 Q1010 NOSIG
LFMP - Perpignan/, France
Distance de la station: SSE 465km
Mise à jour: 26/11/2014 20:30
Couvert
Couvert
 Wind from ONO
Vent: ONO 4 km/h
Température: 15°C
Point de Rosée: 14°C
Humidité: 94%
Baromètre: 1008 hPa
Nuages: Couvert
Visibilité: 10 km
Nuages details: Couvert 945 m
2014/11/26 19:30 LFMP 261930Z AUTO 29002KT 9999 OVC031 15/14 Q1008
 
LFBI - Poitiers/, France
Distance de la station: OSO 108km
Mise à jour: 26/11/2014 20:30
partiellement nuageux
partiellement nuageux
 Wind from SSE
Vent: SSE 6 km/h
Température: 11°C
Point de Rosée: 9°C
Humidité: 88%
Baromètre: 1010 hPa
Nuages: partiellement nuageux
Visibilité: 10 km
2014/11/26 19:30 LFBI 261930Z AUTO 16003KT 9999 NSC 11/09 Q1010
LFRQ - Quimper/, France
Distance de la station: ONO 458km
Mise à jour: 26/11/2014 20:30
partiellement nuageux
partiellement nuageux
 Wind from NO
Vent: NO 9 km/h
Température: 7°C
Wind Chill: 6°C
Point de Rosée: 5°C
Humidité: 87%
Baromètre: 1010 hPa
Nuages: partiellement nuageux
Visibilité: 10 km
2014/11/26 19:30 LFRQ 261930Z AUTO 31005KT 9999 NSC 07/05 Q1010
 
LFRN - Rennes/, France
Distance de la station: ONO 291km
Mise à jour: 26/11/2014 20:30
Broulliard, Couvert
Broulliard, Couvert
 Wind from SO
Vent: SO 2 km/h
Température: 11°C
Point de Rosée: 11°C
Humidité: 100%
Baromètre: 1008 hPa
Récapitulatifs: Broulliard
Nuages: Couvert
Visibilité: 2 km
Nuages details: nuageux 122 m
Couvert 1707 m
2014/11/26 19:30 LFRN 261930Z AUTO 22001KT 2100 BR BKN004 OVC056 11/11 Q1008
LFCR - Rodez/, France
Distance de la station: SSE 277km
Mise à jour: 25/11/2014 11:30
Pas à jour
nuageux
nuageux
 Wind from SSE
Vent: SSE 9 km/h
Température: 13°C
Point de Rosée: 11°C
Humidité: 88%
Baromètre: 1018 hPa
Nuages: nuageux
Visibilité: 10 km
Nuages details: partiellement nuageux 213 m
nuageux 366 m
nuageux 853 m
2014/11/25 10:30 LFCR 251030Z AUTO 15005KT 9999 SCT007 BKN012 BKN028 13/11 Q1018
 
LFYR - Romorantin/, France
Distance de la station: N 56km
Mise à jour: 26/11/2014 20:30
Brouillard ou brume
Brouillard ou brume
 Wind from calm
Vent: Vent calme
Température: 8°C
Point de Rosée: 8°C
Humidité: 100%
Baromètre: 1010 hPa
Récapitulatifs: Brouillard ou brume
Visibilité: 0 km
2014/11/26 19:30 LFYR 261930Z AUTO 00000KT 0150 FG VV/// 08/08 Q1010
LFOP - Rouen/, France
Distance de la station: N 286km
Mise à jour: 26/11/2014 20:30
Broulliard, partiellement nuageux
Broulliard, partiellement nuageux
 Wind from S
Vent: S 7 km/h
Température: 9°C
Wind Chill: 8°C
Point de Rosée: 8°C
Humidité: 94%
Baromètre: 1009 hPa
Récapitulatifs: Broulliard
Nuages: partiellement nuageux
Visibilité: 5 km
2014/11/26 19:30 LFOP 261930Z AUTO 17004KT 4500 BR NSC 09/08 Q1009
 
LFMY - Salon/, France
Distance de la station: SE 446km
Mise à jour: 26/11/2014 20:30
partiellement nuageux
partiellement nuageux
 Wind from ENE
Vent: ENE 6 km/h
Température: 14°C
Point de Rosée: 13°C
Humidité: 94%
Baromètre: 1010 hPa
Nuages: partiellement nuageux
Visibilité: 10 km
2014/11/26 19:30 LFMY 261930Z AUTO 07003KT 9999 NSC 14/13 Q1010
LFST - Strasbourg/, France
Distance de la station: ENE 483km
Mise à jour: 26/11/2014 20:30
partiellement nuageux
partiellement nuageux
 Wind from NNO
Vent: NNO 6 km/h
Température: 6°C
Point de Rosée: 5°C
Humidité: 93%
Baromètre: 1013 hPa
Nuages: partiellement nuageux
Visibilité: 9 km
2014/11/26 19:30 LFST 261930Z AUTO 34003KT 9000 NSC 06/05 Q1013
 
LFRT - Saint-Brieuc/, France
Distance de la station: ONO 388km
Mise à jour: 26/11/2014 20:30
Broulliard, Couvert
Broulliard, Couvert
 Wind from NO
Vent: NO 7 km/h
Température: 10°C
Wind Chill: 9°C
Point de Rosée: 10°C
Humidité: 100%
Baromètre: 1009 hPa
Récapitulatifs: Broulliard
Nuages: Couvert
Visibilité: 5 km
Nuages details: Quelques Nuages 244 m
Couvert 427 m
2014/11/26 19:30 LFRT 261930Z AUTO 31004KT 4500 BR FEW008 OVC014 10/10 Q1009
LFSI - St. Dizier/, France
Distance de la station: NE 313km
Mise à jour: 26/11/2014 20:30
nuageux
nuageux
 Wind from variable
Vent: variable 4 km/h
Température: 12°C
Point de Rosée: 10°C
Humidité: 88%
Baromètre: 1011 hPa
Nuages: nuageux
Visibilité: 10 km
Nuages details: Quelques Nuages 488 m
nuageux 671 m
nuageux 975 m
2014/11/26 19:30 LFSI 261930Z AUTO VRB02KT 9999 FEW016 BKN022 BKN032 12/10 Q1011
 
LFMH - St Etienne/, France
Distance de la station: SE 247km
Mise à jour: 26/11/2014 20:30
faible pluie, Broulliard, Couvert
faible pluie, Broulliard, Couvert
 Wind from calm
Vent: Vent calme
Température: 11°C
Point de Rosée: 10°C
Humidité: 94%
Baromètre: 1010 hPa
Récapitulatifs: faible pluie, Broulliard
Nuages: Couvert
Visibilité: 3 km
Nuages details: Quelques Nuages 1372 m
Couvert 2195 m
2014/11/26 19:30 LFMH 261930Z AUTO 00000KT 2500 -RA BR FEW045 OVC072 11/10 Q1010
LFRG - St Gatien/, France
Distance de la station: NNO 305km
Mise à jour: 26/11/2014 20:30
Couvert
Couvert
 Wind from SSO
Vent: SSO 11 km/h
Température: 10°C
Wind Chill: 8°C
Point de Rosée: 9°C
Humidité: 94%
Baromètre: 1009 hPa
Nuages: Couvert
Visibilité: 10 km
Nuages details: Quelques Nuages 884 m
Couvert 1097 m
2014/11/26 19:30 LFRG 261930Z AUTO 20006KT 9999 FEW029 OVC036 10/09 Q1009
 
LFRZ - St. Nazaire/, France
Distance de la station: ONO 297km
Mise à jour: 26/11/2014 20:30
Brouillard ou brume, partiellement nuageux
Brouillard ou brume, partiellement nuageux
 Wind from calm
Vent: Vent calme
Température: 10°C
Point de Rosée: 10°C
Humidité: 100%
Baromètre: 1009 hPa
Récapitulatifs: Brouillard ou brume
Nuages: partiellement nuageux
Visibilité: 0 km
Nuages details: partiellement nuageux 396 m
2014/11/26 19:30 LFRZ 261930Z AUTO 00000KT 0250 R26/0900N FG SCT013 10/10 Q1009
LFLN - Saint Yan/, France
Distance de la station: ESE 184km
Mise à jour: 26/11/2014 20:30
Orage
Orage
 Wind from ENE
Vent: ENE 6 km/h
Température: 11°C
Point de Rosée: 11°C
Humidité: 100%
Baromètre: 1010 hPa
Nuages: Orage
Visibilité: 10 km
Nuages details: Quelques Nuages 762 m
nuageux 914 m
nuageux 1494 m
2014/11/26 19:30 LFLN 261930Z AUTO 07003KT 9999 FEW025/// BKN030/// BKN049/// ///TCU 11/11 Q1010
 
LFBT - Tarbes/, France
Distance de la station: SSO 427km
Mise à jour: 26/11/2014 20:30
Couvert
Couvert
 Wind from calm
Vent: Vent calme
Température: 11°C
Point de Rosée: 10°C
Humidité: 94%
Baromètre: 1010 hPa
Nuages: Couvert
Visibilité: 10 km
Nuages details: Couvert 366 m
2014/11/26 19:30 LFBT 261930Z AUTO 00000KT 9999 OVC012 11/10 Q1010
LFSL - Toul/, France
Distance de la station: NE 356km
Mise à jour: 26/11/2014 20:30
faible pluie, Orage
faible pluie, Orage
 Wind from NO
Vent: NO 7 km/h
Température: 12°C
Point de Rosée: 10°C
Humidité: 88%
Baromètre: 1009 hPa
Récapitulatifs: faible pluie
Nuages: Orage
Visibilité: 10 km
Nuages details: nuageux 1128 m
nuageux 1341 m
Couvert 1646 m
2014/11/26 19:30 LFSL 261930Z AUTO 32004KT 9999 -RA BKN037/// BKN044/// OVC054/// ///CB 12/10 Q1009
 
LFBO - Toulouse/, France
Distance de la station: S 357km
Mise à jour: 26/11/2014 20:30
nuageux
nuageux
 Wind from NO
Vent: NO 19 km/h
Température: 13°C
Point de Rosée: 12°C
Humidité: 94%
Baromètre: 1009 hPa
Nuages: nuageux
Visibilité: 10 km
Nuages details: nuageux 183 m
nuageux 732 m
nuageux 1067 m
2014/11/26 19:30 LFBO 261930Z AUTO 32010KT 9999 BKN006 BKN024 BKN035 13/12 Q1009
LFOT - Tours/, France
Distance de la station: NO 100km
Mise à jour: 26/11/2014 20:30
nuageux
nuageux
 Wind from SE
Vent: SE 7 km/h
Température: 11°C
Point de Rosée: 10°C
Humidité: 94%
Baromètre: 1010 hPa
Nuages: nuageux
Visibilité: 8 km
Nuages details: nuageux 1219 m
2014/11/26 19:30 LFOT 261930Z 14004KT 8000 BKN040 11/10 Q1010 NOSIG
 
LFPN - Toussus Le Noble/, France
Distance de la station: N 217km
Mise à jour: 26/11/2014 20:30
nuageux
nuageux
 Wind from S
Vent: S 6 km/h
Température: 11°C
Point de Rosée: 10°C
Humidité: 94%
Baromètre: 1010 hPa
Nuages: nuageux
Visibilité: 6 km
Nuages details: nuageux 1189 m
2014/11/26 19:30 LFPN 261930Z AUTO 19003KT 6000 BKN039 11/10 Q1010
LFPV - Villacoublay/, France
Distance de la station: N 220km
Mise à jour: 26/11/2014 20:30
Couvert
Couvert
 Wind from variable
Vent: variable 2 km/h
Température: 11°C
Point de Rosée: 10°C
Humidité: 94%
Baromètre: 1010 hPa
Nuages: Couvert
Visibilité: 10 km
Nuages details: Couvert 1128 m
2014/11/26 19:30 LFPV 261930Z AUTO VRB01KT 9999 OVC037 11/10 Q1010